Time;durP1;ratioP1;P1;durP2;ratioP2;P2;SDS_P1;SDS_P2;PMS_P1;PMS_P2;Temp;Humidity;BMP_temperature;BMP_pressure;BME280_temperature;BME280_humidity;BME280_pressure;Samples;Min_cycle;Max_cycle;Signal;HPM_P1;HPM_P2
2023/06/06 00:09:07;;;;;;;;;;;;;;;13.60;100.00;97593.47;18567486;32;20273;-49
2023/06/06 00:19:13;;;;;;;;;;;;;;;13.47;100.00;97595.78;18566813;32;19956;-50
2023/06/06 00:29:16;;;;;;;;;;;;;;;13.32;100.00;97595.91;18566196;32;19963;-50
2023/06/06 00:39:19;;;;;;;;;;;;;;;13.18;100.00;97596.62;18565248;32;19961;-51
2023/06/06 00:49:23;;;;;;;;;;;;;;;13.02;100.00;97601.41;18564865;32;19948;-49
2023/06/06 00:59:25;;;;;;;;;;;;;;;12.83;100.00;97601.34;18563895;32;19973;-52
2023/06/06 01:09:28;;;;;;;;;;;;;;;12.70;100.00;97602.81;18563405;32;19957;-50
2023/06/06 01:19:32;;;;;;;;;;;;;;;12.53;100.00;97600.50;18562949;32;20265;-52
2023/06/06 01:29:34;;;;;;;;;;;;;;;12.43;100.00;97622.31;18562790;32;19972;-52
2023/06/06 01:39:39;;;;;;;;;;;;;;;12.35;100.00;97620.19;18561618;32;19949;-48
2023/06/06 01:49:42;;;;;;;;;;;;;;;12.23;100.00;97617.03;18561693;32;19944;-48
2023/06/06 01:59:45;;;;;;;;;;;;;;;12.12;100.00;97622.50;18560875;31;19995;-51
2023/06/06 02:09:47;;;;;;;;;;;;;;;11.98;100.00;97632.38;18560783;32;19949;-52
2023/06/06 02:19:50;;;;;;;;;;;;;;;11.89;100.00;97634.81;18574002;32;20004;-49
2023/06/06 02:29:53;;;;;;;;;;;;;;;11.73;100.00;97636.81;18559049;32;20009;-52
2023/06/06 02:39:56;;;;;;;;;;;;;;;11.64;100.00;97630.34;18558604;32;20004;-51
2023/06/06 02:49:59;;;;;;;;;;;;;;;11.53;100.00;97637.69;18572352;32;19968;-50
2023/06/06 03:00:08;;;;;;;;;;;;;;;11.39;100.00;97636.66;18571588;32;19989;-50
2023/06/06 03:10:11;;;;;;;;;;;;;;;11.32;100.00;97636.97;18571211;32;19965;-49
2023/06/06 03:20:14;;;;;;;;;;;;;;;11.27;100.00;97639.69;18570360;32;19968;-50
2023/06/06 03:30:17;;;;;;;;;;;;;;;11.17;100.00;97640.53;18569949;32;20337;-51
2023/06/06 03:40:20;;;;;;;;;;;;;;;11.09;100.00;97651.91;18568776;32;19948;-49
2023/06/06 03:50:23;;;;;;;;;;;;;;;11.04;100.00;97660.81;18554615;31;19989;-50
2023/06/06 04:00:26;;;;;;;;;;;;;;;10.97;100.00;97660.31;18567974;32;20115;-51
2023/06/06 04:10:30;;;;;;;;;;;;;;;11.00;100.00;97670.56;18567571;32;19984;-50
2023/06/06 04:20:36;;;;;;;;;;;;;;;11.05;100.00;97661.66;18566820;32;20009;-50
2023/06/06 04:30:45;;;;;;;;;;;;;;;11.17;100.00;97668.37;18566191;32;19979;-52
2023/06/06 04:40:50;;;;;;;;;;;;;;;11.37;100.00;97674.81;18550718;32;19956;-52
2023/06/06 04:51:14;;;;;;;;;;;;;;;11.61;100.00;97687.78;18564869;32;19988;-53
2023/06/06 05:01:18;;;;;;;;;;;;;;;11.87;100.00;97686.56;18564095;32;19949;-50
2023/06/06 05:11:26;;;;;;;;;;;;;;;12.18;100.00;97694.59;18550333;32;19965;-52
2023/06/06 05:21:30;;;;;;;;;;;;;;;12.50;100.00;97698.72;18562984;32;20317;-52
2023/06/06 05:31:33;;;;;;;;;;;;;;;12.87;100.00;97702.78;18548430;32;20343;-53
2023/06/06 05:41:38;;;;;;;;;;;;;;;13.28;100.00;97704.31;18547651;31;19976;-50
2023/06/06 05:51:41;;;;;;;;;;;;;;;13.71;100.00;97709.06;18561200;32;19973;-54
2023/06/06 06:01:47;;;;;;;;;;;;;;;14.19;100.00;97706.28;18561550;32;19953;-54
2023/06/06 06:11:49;;;;;;;;;;;;;;;14.72;100.00;97713.44;18561133;32;19968;-54
2023/06/06 06:21:52;;;;;;;;;;;;;;;15.40;100.00;97711.22;18546525;32;19960;-55
2023/06/06 06:32:01;;;;;;;;;;;;;;;16.11;100.00;97709.34;18560392;32;19960;-54
2023/06/06 06:42:04;;;;;;;;;;;;;;;16.82;100.00;97725.22;18559638;32;20301;-55
2023/06/06 06:52:07;;;;;;;;;;;;;;;17.53;100.00;97730.03;18559831;32;19963;-55
2023/06/06 07:02:11;;;;;;;;;;;;;;;18.02;100.00;97738.28;18552565;32;19952;-53
2023/06/06 07:12:13;;;;;;;;;;;;;;;18.55;100.00;97748.22;18556546;32;20269;-55
2023/06/06 07:22:16;;;;;;;;;;;;;;;19.08;100.00;97753.75;18570221;32;20300;-55
2023/06/06 07:32:20;;;;;;;;;;;;;;;19.66;100.00;97745.22;18569442;31;19996;-55
2023/06/06 07:42:24;;;;;;;;;;;;;;;20.05;98.34;97752.37;18568811;32;20238;-53
2023/06/06 07:52:28;;;;;;;;;;;;;;;20.32;91.80;97755.75;18568780;32;19964;-55
2023/06/06 08:02:30;;;;;;;;;;;;;;;20.76;92.06;97750.00;18553544;32;19956;-55
2023/06/06 08:12:34;;;;;;;;;;;;;;;21.23;83.97;97751.72;18566564;32;19967;-55
2023/06/06 08:22:37;;;;;;;;;;;;;;;21.51;82.81;97743.66;18567002;32;20320;-55
2023/06/06 08:32:40;;;;;;;;;;;;;;;21.88;78.78;97735.47;18566090;32;19988;-56
2023/06/06 08:42:47;;;;;;;;;;;;;;;22.25;75.55;97743.72;18565479;32;19961;-56
2023/06/06 08:52:56;;;;;;;;;;;;;;;22.51;70.90;97750.84;18564556;32;20009;-54
2023/06/06 09:03:06;;;;;;;;;;;;;;;22.74;69.57;97744.84;18564299;32;19957;-56
2023/06/06 09:13:10;;;;;;;;;;;;;;;23.18;68.67;97744.94;18563694;32;20037;-56
2023/06/06 09:23:14;;;;;;;;;;;;;;;23.51;68.07;97741.09;18548567;31;20250;-55
2023/06/06 09:33:17;;;;;;;;;;;;;;;23.77;65.38;97731.50;18562216;31;20049;-54
2023/06/06 09:43:24;;;;;;;;;;;;;;;24.03;64.64;97723.47;18562146;32;19971;-56
2023/06/06 09:53:28;;;;;;;;;;;;;;;24.38;63.30;97727.44;18561890;32;20020;-55
2023/06/06 10:03:36;;;;;;;;;;;;;;;24.79;57.75;97719.69;18561593;32;19989;-56
2023/06/06 10:13:40;;;;;;;;;;;;;;;25.18;62.90;97718.84;18546719;32;19975;-57
2023/06/06 10:23:45;;;;;;;;;;;;;;;25.57;61.17;97713.25;18560597;32;19961;-57
2023/06/06 10:33:54;;;;;;;;;;;;;;;25.96;55.38;97715.91;18549678;31;19952;-57
2023/06/06 10:43:58;;;;;;;;;;;;;;;26.45;54.11;97705.16;18573034;32;19973;-56
2023/06/06 10:54:21;;;;;;;;;;;;;;;26.66;54.73;97699.09;18572713;32;19948;-56
2023/06/06 11:04:30;;;;;;;;;;;;;;;26.96;43.92;97696.34;18571544;32;19996;-57
2023/06/06 11:15:00;;;;;;;;;;;;;;;27.46;47.08;97692.53;18570716;32;19952;-57
2023/06/06 11:25:05;;;;;;;;;;;;;;;28.06;45.89;97700.59;18570318;32;19957;-58
2023/06/06 11:35:14;;;;;;;;;;;;;;;28.25;45.78;97695.97;18555171;31;20281;-57
2023/06/06 11:45:19;;;;;;;;;;;;;;;27.55;44.22;97690.22;18568200;32;19960;-56
2023/06/06 11:55:34;;;;;;;;;;;;;;;28.10;45.19;97702.62;18568621;32;19956;-57
2023/06/06 12:05:41;;;;;;;;;;;;;;;29.38;44.73;97698.87;18567840;31;19993;-57
2023/06/06 12:15:50;;;;;;;;;;;;;;;30.00;44.14;97685.78;18567216;32;20275;-57
2023/06/06 12:25:57;;;;;;;;;;;;;;;29.64;42.18;97682.16;18567344;32;19964;-58
2023/06/06 12:36:17;;;;;;;;;;;;;;;29.80;41.13;97687.34;18551525;31;19968;-57
2023/06/06 12:46:22;;;;;;;;;;;;;;;29.80;43.00;97671.41;18565488;32;19957;-57
2023/06/06 12:56:28;;;;;;;;;;;;;;;30.15;38.12;97663.44;18564466;32;20355;-57
2023/06/06 13:06:31;;;;;;;;;;;;;;;30.57;38.64;97664.56;18548863;32;19960;-57
2023/06/06 13:16:36;;;;;;;;;;;;;;;31.06;37.99;97665.56;18562816;32;19972;-57
2023/06/06 13:26:40;;;;;;;;;;;;;;;31.21;34.48;97668.28;18562646;32;20003;-57
2023/06/06 13:36:43;;;;;;;;;;;;;;;31.63;36.67;97674.00;18548170;31;19944;-57
2023/06/06 13:46:47;;;;;;;;;;;;;;;32.29;34.08;97661.84;18562104;32;20014;-57
2023/06/06 13:57:00;;;;;;;;;;;;;;;32.58;31.03;97659.50;18561305;31;20324;-57
2023/06/06 14:07:14;;;;;;;;;;;;;;;32.70;32.05;97646.19;18560755;32;20381;-57
2023/06/06 14:17:19;;;;;;;;;;;;;;;32.56;32.76;97636.75;18560868;32;20280;-57
2023/06/06 14:27:24;;;;;;;;;;;;;;;33.16;30.75;97630.75;18560538;32;19971;-57
2023/06/06 14:37:27;;;;;;;;;;;;;;;33.39;30.72;97620.84;18560127;31;20063;-57
2023/06/06 14:47:31;;;;;;;;;;;;;;;33.59;31.15;97618.09;18545916;32;19980;-58
2023/06/06 14:57:34;;;;;;;;;;;;;;;33.45;28.02;97610.72;18559276;32;19961;-56
2023/06/06 15:07:42;;;;;;;;;;;;;;;31.71;29.85;97602.84;18559949;32;19998;-55
2023/06/06 15:17:49;;;;;;;;;;;;;;;30.28;31.80;97586.53;18559825;32;19965;-55
2023/06/06 15:27:55;;;;;;;;;;;;;;;29.54;31.57;97586.25;18570312;32;20381;-53
2023/06/06 15:37:58;;;;;;;;;;;;;;;28.51;33.00;97580.88;18569328;31;19993;-52
2023/06/06 15:48:02;;;;;;;;;;;;;;;27.78;33.83;97572.53;18554515;31;19994;-52
2023/06/06 15:58:06;;;;;;;;;;;;;;;27.36;34.70;97557.97;18568593;32;20005;-54
2023/06/06 16:08:14;;;;;;;;;;;;;;;26.96;34.88;97565.94;18553664;32;19945;-51
2023/06/06 16:18:18;;;;;;;;;;;;;;;26.64;36.80;97562.78;18567133;32;20012;-54
2023/06/06 16:28:23;;;;;;;;;;;;;;;26.37;37.29;97557.34;18566531;32;19960;-53
2023/06/06 16:38:27;;;;;;;;;;;;;;;26.15;38.34;97554.31;18565081;31;19989;-53
2023/06/06 16:48:31;;;;;;;;;;;;;;;26.34;37.91;97547.00;18565415;32;19949;-54
2023/06/06 16:58:35;;;;;;;;;;;;;;;26.12;38.79;97549.53;18564976;32;20237;-53
2023/06/06 17:08:40;;;;;;;;;;;;;;;25.86;39.79;97547.59;18563818;32;19952;-53
2023/06/06 17:18:43;;;;;;;;;;;;;;;25.89;40.87;97549.59;18549241;32;20294;-54
2023/06/06 17:28:48;;;;;;;;;;;;;;;25.77;39.21;97549.81;18563013;32;19956;-55
2023/06/06 17:38:51;;;;;;;;;;;;;;;25.46;42.50;97557.25;18534924;32;19996;-54
2023/06/06 17:49:06;;;;;;;;;;;;;;;24.95;42.09;97559.16;18562088;32;20019;-53
2023/06/06 17:59:10;;;;;;;;;;;;;;;24.93;42.69;97561.50;18561879;32;19988;-56
2023/06/06 18:09:26;;;;;;;;;;;;;;;26.90;39.68;97578.53;18547015;32;19957;-56
2023/06/06 18:19:30;;;;;;;;;;;;;;;28.62;38.11;97585.69;18560632;32;19975;-54
2023/06/06 18:29:34;;;;;;;;;;;;;;;25.49;45.26;97573.12;18560555;32;19989;-54
2023/06/06 18:39:37;;;;;;;;;;;;;;;23.83;51.02;97575.44;18560076;32;20001;-56
2023/06/06 18:49:40;;;;;;;;;;;;;;;22.82;57.12;97584.00;18546064;32;19992;-56
2023/06/06 18:59:44;;;;;;;;;;;;;;;21.92;65.85;97584.97;18555375;32;19948;-56
2023/06/06 19:09:48;;;;;;;;;;;;;;;21.18;74.34;97590.50;18557117;32;19948;-55
2023/06/06 19:19:55;;;;;;;;;;;;;;;20.53;81.19;97591.00;18571019;32;20345;-55
2023/06/06 19:29:58;;;;;;;;;;;;;;;19.94;84.54;97603.75;18570337;32;19977;-54
2023/06/06 19:40:18;;;;;;;;;;;;;;;19.51;90.57;97612.19;18569367;32;19982;-56
2023/06/06 19:50:22;;;;;;;;;;;;;;;19.00;100.00;97623.81;18569109;32;20004;-53
2023/06/06 20:00:28;;;;;;;;;;;;;;;18.57;100.00;97630.19;18541377;32;19952;-55
2023/06/06 20:10:34;;;;;;;;;;;;;;;18.23;100.00;97643.53;18552755;32;20252;-53
2023/06/06 20:20:41;;;;;;;;;;;;;;;17.92;100.00;97651.84;18567262;31;19957;-55
2023/06/06 20:30:46;;;;;;;;;;;;;;;17.62;100.00;97638.72;18552724;32;19957;-56
2023/06/06 20:40:49;;;;;;;;;;;;;;;17.34;100.00;97646.34;18565746;32;19979;-56
2023/06/06 20:50:52;;;;;;;;;;;;;;;17.06;100.00;97637.50;18551556;32;19967;-56
2023/06/06 21:00:56;;;;;;;;;;;;;;;16.77;100.00;97644.22;18564650;32;19961;-55
2023/06/06 21:11:00;;;;;;;;;;;;;;;16.53;100.00;97661.72;18564347;32;20000;-54
2023/06/06 21:21:03;;;;;;;;;;;;;;;16.26;100.00;97660.69;18548844;32;19956;-55
2023/06/06 21:31:05;;;;;;;;;;;;;;;15.96;100.00;97673.06;18562955;32;19960;-55
2023/06/06 21:41:09;;;;;;;;;;;;;;;15.69;100.00;97669.25;18562042;32;20004;-54
2023/06/06 21:51:12;;;;;;;;;;;;;;;15.43;100.00;97671.66;18562266;32;19968;-55
2023/06/06 22:01:15;;;;;;;;;;;;;;;15.18;100.00;97672.94;18547524;32;20328;-54
2023/06/06 22:11:17;;;;;;;;;;;;;;;14.97;100.00;97670.56;18561168;32;19948;-53
2023/06/06 22:21:19;;;;;;;;;;;;;;;14.77;100.00;97681.81;18546264;32;20356;-55
2023/06/06 22:31:22;;;;;;;;;;;;;;;14.52;100.00;97691.94;18552099;32;19960;-55
2023/06/06 22:41:26;;;;;;;;;;;;;;;14.35;100.00;97697.94;18572964;32;19993;-54
2023/06/06 22:51:28;;;;;;;;;;;;;;;14.17;100.00;97689.47;18572982;32;19992;-52
2023/06/06 23:01:30;;;;;;;;;;;;;;;14.03;100.00;97689.38;18557615;31;19961;-55
2023/06/06 23:11:33;;;;;;;;;;;;;;;13.84;100.00;97686.63;18571713;32;19971;-55
2023/06/06 23:21:36;;;;;;;;;;;;;;;13.69;100.00;97678.63;18570930;32;19952;-54
2023/06/06 23:31:38;;;;;;;;;;;;;;;13.53;100.00;97670.66;18570358;32;19983;-56
2023/06/06 23:41:40;;;;;;;;;;;;;;;13.43;100.00;97678.94;18569209;32;19974;-54
2023/06/06 23:51:43;;;;;;;;;;;;;;;13.31;100.00;97679.31;18568957;32;19956;-55
